Time;durP1;ratioP1;P1;durP2;ratioP2;P2;SDS_P1;SDS_P2;PMS_P1;PMS_P2;Temp;Humidity;BMP_temperature;BMP_pressure;BME280_temperature;BME280_humidity;BME280_pressure;Samples;Min_cycle;Max_cycle;Signal;HPM_P1;HPM_P2
2022/07/08 00:00:38;;;;;;;6.18;0.98;;;;;;;22.67;49.04;99513.16;4954872;28;20130;-49
2022/07/08 00:03:05;;;;;;;5.80;1.30;;;;;;;22.52;49.16;99503.19;4954929;29;20493;-49
2022/07/08 00:05:31;;;;;;;4.93;1.38;;;;;;;22.37;49.62;99503.88;4954911;28;20023;-49
2022/07/08 00:07:57;;;;;;;8.82;1.65;;;;;;;22.39;49.77;99504.44;4953379;28;20029;-49
2022/07/08 00:10:23;;;;;;;7.20;1.10;;;;;;;22.36;49.81;99506.84;4954145;28;20031;-49
2022/07/08 00:12:49;;;;;;;10.40;3.00;;;;;;;22.41;49.79;99514.88;4954754;29;20038;-49
2022/07/08 00:15:14;;;;;;;5.13;1.58;;;;;;;22.46;49.41;99518.38;4954766;28;20033;-49
2022/07/08 00:17:40;;;;;;;8.60;1.00;;;;;;;22.34;49.49;99509.75;4954691;29;20020;-49
2022/07/08 00:20:07;;;;;;;9.57;1.85;;;;;;;22.18;50.29;99513.34;4954572;28;20031;-48
2022/07/08 00:22:33;;;;;;;6.85;1.80;;;;;;;22.04;50.32;99515.66;4954593;29;20038;-49
2022/07/08 00:24:59;;;;;;;8.82;1.17;;;;;;;22.01;50.63;99524.97;4953307;29;20442;-49
2022/07/08 00:27:25;;;;;;;4.38;1.17;;;;;;;22.03;50.30;99519.38;4953235;29;20031;-49
2022/07/08 00:29:51;;;;;;;12.45;1.90;;;;;;;22.17;50.21;99519.75;4954593;28;20042;-48
2022/07/08 00:32:17;;;;;;;4.28;1.38;;;;;;;22.05;49.76;99523.41;4954543;29;20030;-48
2022/07/08 00:34:42;;;;;;;13.90;1.42;;;;;;;21.79;50.54;99525.03;4954163;28;20050;-48
2022/07/08 00:37:08;;;;;;;5.85;1.13;;;;;;;21.64;51.09;99531.06;4954412;29;20031;-48
2022/07/08 00:39:34;;;;;;;8.43;1.05;;;;;;;21.48;51.07;99518.63;4954211;28;20027;-47
2022/07/08 00:42:01;;;;;;;4.68;1.00;;;;;;;21.40;51.43;99517.16;4953102;29;20034;-48
2022/07/08 00:44:26;;;;;;;12.07;2.03;;;;;;;21.36;51.43;99516.06;4954264;28;20023;-48
2022/07/08 00:46:52;;;;;;;6.75;1.27;;;;;;;21.27;51.79;99514.88;4954164;29;20054;-48
2022/07/08 00:49:18;;;;;;;5.38;1.25;;;;;;;21.13;52.03;99520.63;4952902;29;20090;-47
2022/07/08 00:51:46;;;;;;;5.32;1.40;;;;;;;20.96;52.57;99517.19;4954151;28;20031;-47
2022/07/08 00:54:18;;;;;;;2.90;1.10;;;;;;;20.87;52.82;99532.84;4954086;28;20532;-48
2022/07/08 00:56:45;;;;;;;5.43;1.40;;;;;;;20.77;52.98;99530.03;4952801;29;20037;-48
2022/07/08 00:59:11;;;;;;;10.45;1.35;;;;;;;20.71;53.22;99525.69;4952752;29;20441;-48
2022/07/08 01:01:37;;;;;;;7.07;1.38;;;;;;;20.88;53.21;99529.09;4953898;28;20031;-48
2022/07/08 01:04:04;;;;;;;4.07;1.00;;;;;;;21.05;52.55;99521.06;4954050;28;20393;-48
2022/07/08 01:06:29;;;;;;;8.32;1.08;;;;;;;21.22;52.40;99533.53;4953932;28;20019;-48
2022/07/08 01:08:55;;;;;;;4.82;0.90;;;;;;;21.51;51.51;99518.09;4953959;28;20078;-48
2022/07/08 01:11:21;;;;;;;1.60;0.90;;;;;;;21.45;51.37;99524.44;4952589;29;20442;-48
2022/07/08 01:13:47;;;;;;;5.13;1.33;;;;;;;21.40;51.45;99519.03;4952610;29;20030;-48
2022/07/08 01:16:14;;;;;;;3.47;0.95;;;;;;;21.35;51.32;99517.13;4952520;29;20070;-48
2022/07/08 01:18:41;;;;;;;9.70;1.73;;;;;;;21.12;52.42;99518.19;4952467;29;20409;-48
2022/07/08 01:21:07;;;;;;;5.15;1.23;;;;;;;21.10;51.96;99517.63;4952165;28;20085;-49
2022/07/08 01:23:33;;;;;;;6.80;0.90;;;;;;;21.30;52.10;99523.19;4953699;28;20019;-48
2022/07/08 01:25:59;;;;;;;3.53;1.00;;;;;;;21.40;51.05;99516.38;4936445;29;20023;-49
2022/07/08 01:28:26;;;;;;;3.95;1.83;;;;;;;21.33;51.61;99522.72;4952414;29;20034;-49
2022/07/08 01:30:51;;;;;;;2.63;1.02;;;;;;;21.55;51.22;99524.56;4952374;29;20035;-48
2022/07/08 01:33:17;;;;;;;4.95;0.95;;;;;;;21.45;50.87;99517.25;4952396;29;20027;-48
2022/07/08 01:35:43;;;;;;;4.90;1.35;;;;;;;21.10;51.45;99526.44;4952171;29;20047;-48
2022/07/08 01:38:12;;;;;;;4.75;0.90;;;;;;;21.06;52.20;99524.53;4953535;28;20118;-48
2022/07/08 01:40:38;;;;;;;3.65;0.88;;;;;;;20.84;52.24;99519.97;4952223;29;20490;-48
2022/07/08 01:43:06;;;;;;;4.43;1.15;;;;;;;20.58;53.14;99528.66;4952234;29;20068;-48
2022/07/08 01:45:32;;;;;;;4.32;1.00;;;;;;;20.34;53.79;99524.34;4953499;29;20034;-48
2022/07/08 01:47:57;;;;;;;4.07;1.17;;;;;;;20.19;53.98;99536.63;4952285;29;20035;-48
2022/07/08 01:50:23;;;;;;;4.88;1.10;;;;;;;20.01;54.57;99530.47;4952165;29;20031;-49
2022/07/08 01:52:49;;;;;;;1.33;0.82;;;;;;;19.99;54.91;99534.44;4953452;29;20027;-48
2022/07/08 01:55:15;;;;;;;10.63;1.52;;;;;;;19.82;55.51;99545.03;4953472;28;20027;-48
2022/07/08 01:57:41;;;;;;;3.67;1.98;;;;;;;19.76;55.37;99541.50;4952106;29;20486;-48
2022/07/08 02:00:07;;;;;;;3.00;1.40;;;;;;;19.71;56.16;99547.53;4953305;29;20019;-48
2022/07/08 02:02:33;;;;;;;2.78;1.05;;;;;;;19.98;55.24;99554.94;4952122;29;20031;-48
2022/07/08 02:04:59;;;;;;;4.13;1.00;;;;;;;19.90;55.07;99553.47;4952089;29;20046;-48
2022/07/08 02:07:24;;;;;;;5.45;0.98;;;;;;;19.85;55.41;99552.56;4953291;29;20062;-48
2022/07/08 02:09:50;;;;;;;2.67;1.08;;;;;;;19.87;54.97;99561.13;4952333;29;20513;-48
2022/07/08 02:12:19;;;;;;;5.60;1.33;;;;;;;19.73;55.56;99553.44;4953321;29;20034;-49
2022/07/08 02:14:50;;;;;;;1.33;0.90;;;;;;;19.60;55.58;99566.19;4953511;29;20030;-48
2022/07/08 02:17:17;;;;;;;4.63;1.10;;;;;;;19.49;55.93;99557.22;4951989;29;20046;-48
2022/07/08 02:19:44;;;;;;;3.42;0.80;;;;;;;19.38;56.35;99558.88;4953201;28;20107;-47
2022/07/08 02:22:10;;;;;;;5.47;1.52;;;;;;;19.24;56.23;99561.00;4951993;29;20512;-48
2022/07/08 02:24:36;;;;;;;10.30;1.30;;;;;;;19.14;57.17;99563.44;4951950;29;20027;-48
2022/07/08 02:27:03;;;;;;;2.17;0.98;;;;;;;19.06;57.13;99564.63;4953198;28;20524;-50
2022/07/08 02:29:29;;;;;;;5.55;1.17;;;;;;;19.11;57.26;99569.22;4951912;29;20448;-51
2022/07/08 02:31:54;;;;;;;3.97;1.25;;;;;;;19.12;57.05;99563.69;4953660;28;20524;-50
2022/07/08 02:34:20;;;;;;;5.47;1.50;;;;;;;19.12;57.11;99573.53;4956349;29;20063;-50
2022/07/08 02:36:46;;;;;;;4.72;1.55;;;;;;;19.09;57.11;99580.09;4956546;29;20082;-50
2022/07/08 02:39:15;;;;;;;5.57;1.15;;;;;;;19.07;57.21;99578.72;4955154;29;20105;-50
2022/07/08 02:41:41;;;;;;;4.22;1.80;;;;;;;19.09;57.29;99573.97;4956383;28;20401;-50
2022/07/08 02:44:07;;;;;;;9.18;1.25;;;;;;;19.23;57.13;99570.00;4956445;28;20031;-50
2022/07/08 02:46:34;;;;;;;2.38;1.30;;;;;;;19.34;56.42;99571.03;4955028;29;20421;-50
2022/07/08 02:49:00;;;;;;;6.07;1.33;;;;;;;19.21;56.41;99585.41;4955062;29;20520;-50
2022/07/08 02:51:26;;;;;;;2.40;0.88;;;;;;;19.19;56.88;99579.50;4956278;28;20031;-50
2022/07/08 02:53:51;;;;;;;6.90;1.35;;;;;;;19.40;56.75;99588.72;4954937;29;20031;-51
2022/07/08 02:56:17;;;;;;;4.68;1.20;;;;;;;19.52;56.06;99580.72;4956285;28;20038;-50
2022/07/08 02:58:43;;;;;;;7.45;1.38;;;;;;;19.54;56.07;99583.94;4956143;29;20086;-50
2022/07/08 03:01:08;;;;;;;7.25;2.55;;;;;;;19.53;55.80;99585.78;4956015;29;20027;-50
2022/07/08 03:03:34;;;;;;;5.28;1.23;;;;;;;19.40;55.86;99579.91;4954783;29;20031;-51
2022/07/08 03:06:00;;;;;;;4.10;1.33;;;;;;;19.33;56.25;99591.50;4956051;28;20079;-51
2022/07/08 03:08:26;;;;;;;3.70;1.00;;;;;;;19.31;56.34;99584.81;4955964;29;20023;-50
2022/07/08 03:10:52;;;;;;;3.60;1.30;;;;;;;19.41;56.27;99590.34;4970757;28;20094;-50
2022/07/08 03:13:17;;;;;;;3.08;0.95;;;;;;;19.71;56.04;99587.47;4954619;29;20498;-50
2022/07/08 03:15:43;;;;;;;8.05;1.52;;;;;;;19.83;55.12;99599.97;4954579;29;20027;-50
2022/07/08 03:18:09;;;;;;;5.55;1.30;;;;;;;19.76;55.34;99597.44;4954550;29;20023;-50
2022/07/08 03:20:35;;;;;;;4.40;1.13;;;;;;;19.73;55.49;99600.56;4955653;28;20042;-51
2022/07/08 03:23:00;;;;;;;9.05;1.95;;;;;;;19.73;55.46;99596.03;4955708;28;20034;-51
2022/07/08 03:25:26;;;;;;;4.00;1.00;;;;;;;19.70;55.08;99601.03;4954286;29;20023;-51
2022/07/08 03:27:52;;;;;;;5.88;1.80;;;;;;;19.54;55.97;99606.06;4954362;29;20079;-51
2022/07/08 03:30:18;;;;;;;3.95;1.52;;;;;;;19.71;55.31;99603.47;4955619;29;20030;-50
2022/07/08 03:32:43;;;;;;;12.20;1.73;;;;;;;19.60;55.12;99595.47;4955608;28;20058;-50
2022/07/08 03:35:09;;;;;;;11.45;1.63;;;;;;;19.47;55.73;99605.38;4955241;29;20050;-50
2022/07/08 03:37:40;;;;;;;13.77;1.85;;;;;;;19.51;55.99;99608.38;4954446;29;20038;-51
2022/07/08 03:42:50;;;;;;;9.15;1.73;;;;;;;19.59;55.65;99613.31;4955364;28;20465;-50
2022/07/08 03:45:16;;;;;;;16.23;1.85;;;;;;;19.62;55.81;99614.69;4955228;29;20024;-51
2022/07/08 03:47:42;;;;;;;7.35;1.52;;;;;;;19.63;55.58;99611.81;4955234;28;20039;-51
2022/07/08 03:50:08;;;;;;;9.52;1.40;;;;;;;19.65;55.14;99619.56;4953909;29;20031;-50
2022/07/08 03:52:34;;;;;;;12.15;1.55;;;;;;;19.54;55.27;99618.56;4955168;28;20027;-50
2022/07/08 03:55:00;;;;;;;5.45;1.00;;;;;;;19.54;55.41;99618.56;4955120;28;20031;-50
2022/07/08 03:57:25;;;;;;;9.27;2.35;;;;;;;19.45;55.81;99619.97;4953780;29;20031;-51
2022/07/08 03:59:51;;;;;;;8.68;1.75;;;;;;;19.47;55.59;99623.19;4954933;29;20199;-51
2022/07/08 04:02:17;;;;;;;10.60;1.95;;;;;;;19.52;55.42;99625.97;4954951;29;20027;-50
2022/07/08 04:04:42;;;;;;;10.70;1.30;;;;;;;19.41;55.52;99632.13;4954914;29;20062;-51
2022/07/08 04:07:08;;;;;;;7.95;1.60;;;;;;;19.33;56.01;99626.09;4954857;28;20030;-51
2022/07/08 04:09:34;;;;;;;12.27;2.00;;;;;;;19.49;56.00;99624.56;4953560;29;20111;-51
2022/07/08 04:11:59;;;;;;;11.75;1.77;;;;;;;19.54;55.57;99630.00;4954797;29;20059;-51
2022/07/08 04:14:25;;;;;;;11.30;2.70;;;;;;;19.80;55.36;99632.38;4954789;29;20034;-51
2022/07/08 04:16:51;;;;;;;9.50;2.10;;;;;;;19.87;54.84;99633.88;4953455;29;20041;-51
2022/07/08 04:19:16;;;;;;;21.17;2.35;;;;;;;20.02;54.69;99629.84;4954678;29;20401;-51
2022/07/08 04:21:42;;;;;;;9.60;1.77;;;;;;;20.09;54.21;99639.31;4954589;28;20078;-51
2022/07/08 04:24:08;;;;;;;7.03;1.50;;;;;;;20.11;54.09;99639.91;4953345;29;20024;-51
2022/07/08 04:26:34;;;;;;;9.02;1.33;;;;;;;20.46;53.69;99636.22;4953310;29;20490;-51
2022/07/08 04:29:00;;;;;;;5.53;1.60;;;;;;;20.87;52.21;99628.88;4954598;28;20029;-51
2022/07/08 04:31:27;;;;;;;12.52;2.50;;;;;;;21.08;51.79;99631.84;4954492;28;20413;-51
2022/07/08 04:33:53;;;;;;;7.93;1.55;;;;;;;22.15;49.49;99637.66;4954480;28;20030;-51
2022/07/08 04:36:20;;;;;;;9.68;1.95;;;;;;;23.01;47.24;99625.22;4954169;28;20069;-49
2022/07/08 04:38:46;;;;;;;14.23;1.70;;;;;;;23.63;45.06;99627.13;4954380;28;20023;-49
2022/07/08 04:41:12;;;;;;;9.02;1.50;;;;;;;24.18;43.84;99630.22;4954243;28;20030;-49
2022/07/08 04:43:38;;;;;;;6.13;1.35;;;;;;;24.40;42.97;99635.31;4952989;29;20030;-49
2022/07/08 04:46:04;;;;;;;10.25;2.72;;;;;;;24.23;43.22;99635.59;4954217;29;20029;-49
2022/07/08 04:48:31;;;;;;;11.13;2.05;;;;;;;24.11;43.40;99630.50;4968973;28;20039;-49
2022/07/08 04:50:57;;;;;;;7.22;1.77;;;;;;;23.92;43.53;99640.94;4952848;29;20572;-49
2022/07/08 04:53:23;;;;;;;8.35;1.38;;;;;;;23.56;44.09;99641.84;4954089;28;20039;-48
2022/07/08 04:55:49;;;;;;;8.18;1.60;;;;;;;23.15;45.20;99639.78;4953677;28;20041;-49
2022/07/08 04:58:14;;;;;;;11.07;1.50;;;;;;;22.94;45.99;99644.19;4954106;28;20078;-49
2022/07/08 05:00:40;;;;;;;15.13;2.92;;;;;;;22.74;46.00;99652.91;4952655;29;20421;-49
2022/07/08 05:03:06;;;;;;;7.05;1.55;;;;;;;23.07;46.00;99642.97;4953937;28;20028;-49
2022/07/08 05:05:33;;;;;;;6.70;1.30;;;;;;;24.16;43.69;99650.34;4953943;28;20441;-48
2022/07/08 05:08:00;;;;;;;13.02;1.90;;;;;;;24.50;42.55;99646.09;4953936;29;20038;-49
2022/07/08 05:10:26;;;;;;;15.35;1.83;;;;;;;24.33;42.94;99642.84;4952631;29;20386;-49
2022/07/08 05:12:52;;;;;;;21.63;2.70;;;;;;;24.21;43.12;99655.72;4953873;28;20089;-49
2022/07/08 05:15:19;;;;;;;6.18;1.70;;;;;;;23.69;43.83;99652.88;4953837;28;20054;-49
2022/07/08 05:17:45;;;;;;;9.73;1.85;;;;;;;23.57;44.15;99659.53;4953887;28;20058;-49
2022/07/08 05:20:11;;;;;;;9.50;1.80;;;;;;;23.39;44.53;99658.13;4952459;29;20063;-48
2022/07/08 05:22:38;;;;;;;7.47;1.35;;;;;;;23.19;45.05;99659.63;4953873;28;20028;-49
2022/07/08 05:25:04;;;;;;;21.02;2.55;;;;;;;23.21;45.58;99654.81;4953753;28;20027;-49
2022/07/08 05:27:30;;;;;;;10.90;1.38;;;;;;;23.39;44.94;99653.56;4953811;28;20058;-49
2022/07/08 05:29:56;;;;;;;14.70;2.33;;;;;;;23.36;44.96;99653.28;4952410;29;20540;-49
2022/07/08 05:32:22;;;;;;;12.38;1.90;;;;;;;23.68;44.30;99648.59;4953637;29;20027;-49
2022/07/08 05:34:48;;;;;;;10.15;1.77;;;;;;;24.11;43.10;99641.22;4952202;29;20051;-48
2022/07/08 05:37:14;;;;;;;6.70;1.60;;;;;;;24.52;42.27;99641.25;4952372;29;20448;-49
2022/07/08 05:39:41;;;;;;;10.13;1.75;;;;;;;25.04;41.42;99638.50;4952302;29;20035;-48
2022/07/08 05:42:08;;;;;;;9.68;1.70;;;;;;;26.20;39.10;99642.84;4953589;28;20032;-49
2022/07/08 05:44:36;;;;;;;14.82;2.10;;;;;;;27.15;37.31;99646.06;4953638;28;20565;-49
2022/07/08 05:47:03;;;;;;;12.52;1.98;;;;;;;28.59;34.65;99640.31;4953504;28;20043;-49
2022/07/08 05:49:29;;;;;;;8.45;2.10;;;;;;;29.79;32.85;99637.75;4952251;29;20409;-49
2022/07/08 05:51:54;;;;;;;12.63;1.77;;;;;;;30.53;31.50;99642.00;4953487;28;20031;-48
2022/07/08 05:54:20;;;;;;;6.70;1.55;;;;;;;30.41;31.30;99637.16;4953493;29;20059;-48
2022/07/08 05:56:46;;;;;;;8.52;1.77;;;;;;;28.90;33.25;99641.69;4952152;29;20059;-50
2022/07/08 05:59:12;;;;;;;9.15;1.52;;;;;;;27.50;35.66;99642.94;4953437;29;20514;-49
2022/07/08 06:01:37;;;;;;;9.27;1.58;;;;;;;26.61;37.48;99650.63;4953346;29;20035;-49
2022/07/08 06:04:03;;;;;;;17.50;2.17;;;;;;;25.95;38.60;99657.28;4953415;29;20050;-49
2022/07/08 06:06:29;;;;;;;5.38;1.98;;;;;;;25.60;39.51;99657.16;4953461;28;20023;-49
2022/07/08 06:08:55;;;;;;;14.52;1.77;;;;;;;25.15;40.05;99658.09;4956918;29;20445;-49
2022/07/08 06:11:21;;;;;;;6.40;1.25;;;;;;;26.09;39.16;99656.38;4957064;28;20035;-48
2022/07/08 06:13:46;;;;;;;17.30;2.40;;;;;;;28.26;35.02;99643.00;4955860;29;20032;-49
2022/07/08 06:16:12;;;;;;;7.95;1.38;;;;;;;29.86;32.25;99640.84;4955642;29;20029;-48
2022/07/08 06:18:38;;;;;;;7.00;1.20;;;;;;;31.04;30.42;99641.47;4955607;29;20062;-48
2022/07/08 06:21:04;;;;;;;7.30;1.38;;;;;;;31.84;28.96;99637.84;4956781;28;20023;-48
2022/07/08 06:23:29;;;;;;;5.15;1.40;;;;;;;32.36;28.46;99637.81;4955551;29;20375;-49
2022/07/08 06:25:55;;;;;;;6.38;1.13;;;;;;;33.13;27.60;99637.91;4956731;28;20039;-49
2022/07/08 06:28:21;;;;;;;5.47;1.05;;;;;;;33.75;26.08;99633.72;4956785;29;20058;-49
2022/07/08 06:30:47;;;;;;;8.10;0.90;;;;;;;34.33;25.36;99647.50;4956702;28;20027;-48
2022/07/08 06:33:12;;;;;;;7.47;1.75;;;;;;;34.61;25.24;99642.22;4956617;29;20034;-49
2022/07/08 06:35:38;;;;;;;4.38;1.38;;;;;;;35.10;24.45;99644.22;4956388;28;20126;-49
2022/07/08 06:38:04;;;;;;;7.40;1.42;;;;;;;35.59;23.79;99646.13;4956589;28;20481;-49
2022/07/08 06:40:29;;;;;;;6.75;1.77;;;;;;;36.07;23.03;99636.19;4955143;29;20027;-48
2022/07/08 06:42:55;;;;;;;7.70;1.50;;;;;;;34.66;24.72;99645.91;4956447;29;20055;-50
2022/07/08 06:45:21;;;;;;;8.57;1.52;;;;;;;34.01;25.52;99649.06;4956413;29;20055;-49
2022/07/08 06:47:47;;;;;;;20.55;2.67;;;;;;;33.56;26.39;99646.94;4956419;28;20030;-48
2022/07/08 06:50:12;;;;;;;20.70;2.22;;;;;;;34.54;25.07;99643.91;4955046;29;20090;-48
2022/07/08 06:52:38;;;;;;;13.35;2.38;;;;;;;35.10;23.98;99652.41;4954977;29;20031;-48
2022/07/08 06:55:04;;;;;;;14.98;1.77;;;;;;;34.78;24.26;99648.63;4956249;28;20016;-49
2022/07/08 06:57:30;;;;;;;23.15;2.42;;;;;;;33.59;25.39;99649.03;4956233;29;20547;-49
2022/07/08 06:59:56;;;;;;;19.25;2.20;;;;;;;31.69;28.15;99662.72;4956035;28;20110;-49
2022/07/08 07:02:22;;;;;;;16.80;3.38;;;;;;;31.92;28.65;99660.69;4956121;28;20038;-49
2022/07/08 07:04:48;;;;;;;9.63;2.63;;;;;;;33.69;26.05;99653.31;4956051;28;20478;-50
2022/07/08 07:07:14;;;;;;;17.58;2.70;;;;;;;34.24;24.92;99646.78;4954750;29;20031;-49
2022/07/08 07:09:40;;;;;;;16.40;2.95;;;;;;;33.39;26.10;99651.38;4956028;28;20023;-49
2022/07/08 07:12:06;;;;;;;8.95;1.90;;;;;;;34.17;25.21;99652.78;4955912;28;20146;-49
2022/07/08 07:14:32;;;;;;;10.80;1.88;;;;;;;35.10;24.39;99657.84;4955882;28;20035;-49
2022/07/08 07:16:59;;;;;;;22.02;2.28;;;;;;;35.79;23.43;99653.38;4954583;29;20035;-48
2022/07/08 07:19:25;;;;;;;19.13;2.70;;;;;;;36.56;22.79;99651.56;4954108;28;20033;-49
2022/07/08 07:21:51;;;;;;;15.40;3.17;;;;;;;36.93;22.01;99643.16;4955701;28;20019;-48
2022/07/08 07:24:16;;;;;;;19.80;2.72;;;;;;;36.78;21.90;99647.47;4955761;29;20508;-49
2022/07/08 07:26:42;;;;;;;16.65;2.85;;;;;;;36.81;21.78;99651.44;4955679;28;20516;-49
2022/07/08 07:29:09;;;;;;;28.25;3.58;;;;;;;36.77;21.90;99652.13;4954328;29;20453;-49
2022/07/08 07:31:36;;;;;;;24.58;3.40;;;;;;;35.58;22.73;99653.53;4955604;28;20023;-48
2022/07/08 07:34:02;;;;;;;36.05;4.35;;;;;;;33.95;24.62;99659.34;4954082;29;20125;-50
2022/07/08 07:36:28;;;;;;;27.95;3.50;;;;;;;32.34;27.17;99664.50;4955553;28;20050;-48
2022/07/08 07:38:54;;;;;;;22.75;2.50;;;;;;;31.88;27.67;99662.44;4954116;29;20031;-49
2022/07/08 07:41:20;;;;;;;24.23;3.13;;;;;;;30.94;28.75;99659.94;4954089;29;20031;-48
2022/07/08 07:43:46;;;;;;;24.17;2.78;;;;;;;30.13;30.19;99658.91;4955578;28;20045;-48
2022/07/08 07:46:11;;;;;;;16.17;2.85;;;;;;;29.98;31.11;99659.25;4955298;28;20034;-49
2022/07/08 07:48:37;;;;;;;6.50;1.90;;;;;;;30.17;30.76;99656.38;4954045;29;20438;-48
2022/07/08 07:51:03;;;;;;;16.95;2.85;;;;;;;30.81;30.55;99662.41;4955220;28;20114;-49
2022/07/08 07:53:29;;;;;;;12.95;1.70;;;;;;;32.01;28.73;99656.06;4955194;28;20024;-49
2022/07/08 07:55:56;;;;;;;8.80;1.58;;;;;;;33.15;27.07;99646.56;4955397;28;20106;-49
2022/07/08 07:58:22;;;;;;;7.43;1.70;;;;;;;34.06;25.78;99651.56;4955437;28;20050;-49
2022/07/08 08:00:48;;;;;;;6.50;1.63;;;;;;;34.53;24.95;99653.22;4954908;28;20069;-49
2022/07/08 08:03:14;;;;;;;7.63;2.17;;;;;;;35.90;23.46;99648.22;4955048;28;20027;-50
2022/07/08 08:05:42;;;;;;;7.32;1.70;;;;;;;37.04;22.07;99649.66;4953703;29;20030;-49
2022/07/08 08:08:08;;;;;;;11.55;2.17;;;;;;;37.10;22.35;99645.50;4954913;28;20027;-49
2022/07/08 08:10:34;;;;;;;7.60;1.48;;;;;;;38.17;21.07;99640.75;4954881;28;20027;-50
2022/07/08 08:13:00;;;;;;;9.25;1.77;;;;;;;39.47;19.75;99641.75;4937533;29;20122;-48
2022/07/08 08:15:29;;;;;;;7.32;1.33;;;;;;;38.72;19.92;99630.41;4954787;29;20371;-49
2022/07/08 08:17:57;;;;;;;12.68;2.17;;;;;;;36.80;22.16;99628.75;4953371;29;20034;-49
2022/07/08 08:20:25;;;;;;;12.05;2.15;;;;;;;36.30;22.60;99644.66;4953294;29;20034;-49
2022/07/08 08:22:52;;;;;;;8.45;1.35;;;;;;;36.81;22.59;99635.03;4953347;29;20027;-49
2022/07/08 08:25:19;;;;;;;13.10;1.77;;;;;;;38.24;20.96;99631.91;4954609;28;20055;-49
2022/07/08 08:27:45;;;;;;;12.95;2.05;;;;;;;39.20;20.03;99631.91;4954574;28;20040;-49
2022/07/08 08:30:11;;;;;;;16.33;2.38;;;;;;;38.32;20.31;99642.63;4952488;28;20432;-48
2022/07/08 08:32:38;;;;;;;17.52;3.63;;;;;;;37.49;21.42;99634.66;4953127;29;20461;-50
2022/07/08 08:35:05;;;;;;;7.15;1.52;;;;;;;37.74;21.01;99642.63;4954237;29;20035;-49
2022/07/08 08:37:31;;;;;;;9.23;1.80;;;;;;;38.54;20.32;99640.28;4954474;28;20098;-50
2022/07/08 08:40:02;;;;;;;8.93;1.33;;;;;;;39.07;19.69;99643.13;4954232;28;20450;-50
2022/07/08 08:42:28;;;;;;;11.48;2.42;;;;;;;39.97;18.85;99636.09;4953413;29;20039;-49
2022/07/08 08:44:54;;;;;;;7.47;1.40;;;;;;;40.32;18.31;99635.69;4936980;29;20020;-50
2022/07/08 08:47:27;;;;;;;12.15;1.55;;;;;;;38.03;20.63;99632.25;4952947;29;20105;-50
2022/07/08 08:49:55;;;;;;;9.93;1.65;;;;;;;36.47;22.22;99637.28;4954263;28;20082;-49
2022/07/08 08:52:23;;;;;;;12.07;1.63;;;;;;;37.54;21.70;99628.09;4952858;29;20027;-50
2022/07/08 08:54:51;;;;;;;6.38;1.77;;;;;;;38.27;21.04;99631.16;4954128;28;20022;-50
2022/07/08 08:57:20;;;;;;;10.63;1.52;;;;;;;39.26;19.72;99628.50;4952800;29;20027;-49
2022/07/08 08:59:46;;;;;;;28.35;2.85;;;;;;;39.34;19.76;99621.13;4954031;28;20031;-49
2022/07/08 09:02:12;;;;;;;12.55;2.08;;;;;;;37.98;20.99;99614.94;4952665;29;20031;-50
2022/07/08 09:04:38;;;;;;;8.88;1.65;;;;;;;37.54;21.87;99620.69;4953978;28;20023;-50
2022/07/08 09:07:04;;;;;;;22.23;2.72;;;;;;;37.75;21.05;99625.03;4952656;29;20113;-49
2022/07/08 09:09:30;;;;;;;5.60;1.45;;;;;;;37.43;21.02;99622.41;4952688;29;20031;-49
2022/07/08 09:11:56;;;;;;;6.20;1.30;;;;;;;36.12;22.58;99616.00;4953848;29;20027;-49
2022/07/08 09:14:23;;;;;;;5.38;1.10;;;;;;;36.04;23.22;99625.16;4952580;29;20023;-49
2022/07/08 09:17:12;;;;;;;8.00;1.20;;;;;;;37.59;21.86;99608.69;4952519;29;20042;-49
2022/07/08 09:19:42;;;;;;;6.57;1.98;;;;;;;38.60;20.96;99600.41;4953873;29;20030;-49
2022/07/08 09:22:09;;;;;;;5.60;1.73;;;;;;;39.15;19.61;99605.56;4953730;28;20030;-48
2022/07/08 09:24:36;;;;;;;6.97;1.38;;;;;;;39.09;19.68;99609.81;4953703;28;20079;-49
2022/07/08 09:27:12;;;;;;;8.05;2.03;;;;;;;39.19;20.33;99606.41;4952412;29;20039;-50
2022/07/08 09:29:56;;;;;;;4.25;1.05;;;;;;;39.97;19.39;99596.84;4952495;29;20035;-51
2022/07/08 09:32:21;;;;;;;;;;;;;;;40.87;18.58;99601.16;4952811;29;20090;-51
2022/07/08 09:34:47;;;;;;;8.50;1.70;;;;;;;40.81;17.97;99599.94;4953466;28;20001;-51
2022/07/08 09:37:16;;;;;;;14.25;1.27;;;;;;;40.47;18.42;99594.59;4952401;29;20079;-51
2022/07/08 09:39:43;;;;;;;8.82;1.70;;;;;;;40.40;18.47;99595.28;4953666;28;20020;-50
2022/07/08 09:42:09;;;;;;;5.60;1.58;;;;;;;40.42;18.39;99590.19;4956062;28;20572;-51
2022/07/08 09:44:37;;;;;;;13.60;1.85;;;;;;;40.09;18.56;99599.31;4957529;28;20413;-51
2022/07/08 09:47:13;;;;;;;6.80;1.17;;;;;;;40.11;18.97;99594.22;4957533;28;20486;-51
2022/07/08 09:49:44;;;;;;;6.60;1.35;;;;;;;40.12;18.83;99593.81;4957521;28;20082;-51
2022/07/08 09:52:11;;;;;;;4.20;1.00;;;;;;;40.22;18.52;99588.81;4972308;28;20043;-52
2022/07/08 09:54:37;;;;;;;5.88;1.67;;;;;;;39.64;19.16;99593.66;4956083;29;20513;-51
2022/07/08 09:57:03;;;;;;;9.13;1.08;;;;;;;38.92;19.67;99586.41;4956034;29;20034;-52
2022/07/08 09:59:30;;;;;;;6.40;1.02;;;;;;;37.97;20.78;99582.41;4957241;28;20031;-49
2022/07/08 10:01:58;;;;;;;13.25;1.70;;;;;;;36.78;22.08;99588.09;4957203;28;20370;-48
2022/07/08 10:04:24;;;;;;;7.95;1.70;;;;;;;37.09;21.88;99578.22;4957250;28;20030;-50
2022/07/08 10:06:54;;;;;;;4.65;1.38;;;;;;;37.41;21.25;99586.38;4957152;28;20430;-49
2022/07/08 10:09:21;;;;;;;5.28;1.38;;;;;;;37.39;21.81;99585.94;4940191;29;20145;-50
2022/07/08 10:11:49;;;;;;;5.93;1.27;;;;;;;37.07;21.85;99580.53;4955807;29;20031;-48
2022/07/08 10:14:16;;;;;;;7.35;1.30;;;;;;;36.96;21.47;99566.59;4957073;28;20505;-49
2022/07/08 10:16:45;;;;;;;7.38;1.35;;;;;;;36.72;22.06;99566.81;4939796;29;20461;-49
2022/07/08 10:19:19;;;;;;;5.22;0.82;;;;;;;36.85;21.91;99573.78;4957054;28;20046;-49
2022/07/08 10:21:50;;;;;;;5.80;1.10;;;;;;;36.87;21.88;99568.72;4956876;28;20058;-49
2022/07/08 10:24:22;;;;;;;4.82;1.00;;;;;;;36.97;21.78;99572.88;4939709;29;20505;-49
2022/07/08 10:26:48;;;;;;;2.83;1.20;;;;;;;37.18;21.71;99576.09;4956851;28;20031;-49
2022/07/08 10:29:14;;;;;;;5.45;1.30;;;;;;;37.33;21.98;99574.47;4955482;29;20027;-49
2022/07/08 10:31:42;;;;;;;4.13;1.10;;;;;;;37.49;21.21;99571.69;4956718;28;20062;-49
2022/07/08 10:34:08;;;;;;;3.50;1.08;;;;;;;37.49;21.64;99579.06;4956390;28;20038;-48
2022/07/08 10:36:52;;;;;;;5.07;1.38;;;;;;;37.26;21.96;99565.31;4955368;29;20031;-49
2022/07/08 10:39:25;;;;;;;4.88;1.50;;;;;;;37.22;22.15;99575.38;4956605;28;20027;-49
2022/07/08 10:42:03;;;;;;;11.07;1.73;;;;;;;37.47;22.00;99571.25;4956697;28;20110;-50
2022/07/08 10:44:43;;;;;;;3.90;1.00;;;;;;;37.56;21.77;99566.31;4956516;28;20035;-49
2022/07/08 10:47:29;;;;;;;9.07;1.42;;;;;;;37.26;21.99;99571.56;4956457;28;20062;-49
2022/07/08 10:50:07;;;;;;;6.35;1.38;;;;;;;36.80;22.30;99571.28;4956359;28;20505;-48
2022/07/08 10:52:41;;;;;;;6.72;1.20;;;;;;;36.78;22.36;99565.38;4954289;28;20122;-49
2022/07/08 10:55:13;;;;;;;9.95;1.65;;;;;;;36.99;22.32;99560.41;4955084;29;20050;-50
2022/07/08 10:57:53;;;;;;;6.05;1.20;;;;;;;37.59;22.07;99553.91;4956246;28;20031;-49
2022/07/08 11:00:18;;;;;;;4.70;1.20;;;;;;;38.02;21.28;99551.97;4956081;28;20058;-49
2022/07/08 11:02:46;;;;;;;9.45;1.65;;;;;;;38.15;21.13;99552.59;4956136;28;20105;-48
2022/07/08 11:05:38;;;;;;;3.55;1.17;;;;;;;38.21;20.71;99556.63;4956115;28;20135;-50
2022/07/08 11:08:19;;;;;;;5.28;1.17;;;;;;;38.33;20.76;99553.69;4956110;28;20031;-49
2022/07/08 11:10:46;;;;;;;6.38;1.65;;;;;;;38.20;21.23;99535.84;4955996;28;20031;-49
2022/07/08 11:13:11;;;;;;;6.07;1.20;;;;;;;38.13;21.38;99549.44;4955995;28;20031;-49
2022/07/08 11:15:37;;;;;;;5.68;1.05;;;;;;;37.92;21.15;99545.13;4954720;29;20489;-49
2022/07/08 11:18:04;;;;;;;13.23;1.65;;;;;;;37.66;21.66;99545.81;4955903;28;20106;-49
2022/07/08 11:20:31;;;;;;;18.50;2.33;;;;;;;37.43;22.28;99553.94;4955713;28;20182;-49
2022/07/08 11:22:57;;;;;;;11.35;1.52;;;;;;;37.06;21.84;99540.59;4955801;28;20063;-49
2022/07/08 11:25:24;;;;;;;11.85;1.77;;;;;;;36.74;22.46;99543.41;4954385;29;20111;-49
2022/07/08 11:27:50;;;;;;;15.65;1.80;;;;;;;36.46;22.86;99535.28;4955745;28;20035;-49
2022/07/08 11:30:17;;;;;;;12.52;1.75;;;;;;;36.13;23.10;99541.09;4955582;29;20490;-49
2022/07/08 11:32:47;;;;;;;20.65;2.25;;;;;;;36.08;23.44;99541.34;4954280;29;20090;-49